sensor_id;sensor_type;location;lat;lon;timestamp;P1;durP1;ratioP1;P2;durP2;ratioP2
20391;SDS011;10355;53.688;10.078;2022-07-12T00:01:23;1.05;;;0.77;;
20391;SDS011;10355;53.688;10.078;2022-07-12T00:04:06;0.88;;;0.70;;
20391;SDS011;10355;53.688;10.078;2022-07-12T00:06:49;2.63;;;0.70;;
20391;SDS011;10355;53.688;10.078;2022-07-12T00:09:32;2.03;;;0.70;;
20391;SDS011;10355;53.688;10.078;2022-07-12T00:12:15;1.00;;;0.80;;
20391;SDS011;10355;53.688;10.078;2022-07-12T00:14:58;0.90;;;0.60;;
20391;SDS011;10355;53.688;10.078;2022-07-12T00:17:42;0.82;;;0.60;;
20391;SDS011;10355;53.688;10.078;2022-07-12T00:20:25;1.23;;;0.80;;
20391;SDS011;10355;53.688;10.078;2022-07-12T00:23:08;1.05;;;0.70;;
20391;SDS011;10355;53.688;10.078;2022-07-12T00:25:51;0.85;;;0.73;;
20391;SDS011;10355;53.688;10.078;2022-07-12T00:28:34;1.85;;;0.80;;
20391;SDS011;10355;53.688;10.078;2022-07-12T00:31:17;1.08;;;0.73;;
20391;SDS011;10355;53.688;10.078;2022-07-12T00:34:01;0.88;;;0.80;;
20391;SDS011;10355;53.688;10.078;2022-07-12T00:36:44;2.15;;;0.85;;
20391;SDS011;10355;53.688;10.078;2022-07-12T00:39:27;1.98;;;0.90;;
20391;SDS011;10355;53.688;10.078;2022-07-12T00:42:10;1.35;;;1.00;;
20391;SDS011;10355;53.688;10.078;2022-07-12T00:44:52;1.13;;;0.80;;
20391;SDS011;10355;53.688;10.078;2022-07-12T00:47:36;0.80;;;0.77;;
20391;SDS011;10355;53.688;10.078;2022-07-12T00:50:21;1.13;;;0.70;;
20391;SDS011;10355;53.688;10.078;2022-07-12T00:53:04;2.22;;;0.93;;
20391;SDS011;10355;53.688;10.078;2022-07-12T00:55:46;1.30;;;0.90;;
20391;SDS011;10355;53.688;10.078;2022-07-12T00:58:29;1.15;;;0.90;;
20391;SDS011;10355;53.688;10.078;2022-07-12T01:01:13;0.73;;;0.70;;
20391;SDS011;10355;53.688;10.078;2022-07-12T01:03:56;1.00;;;0.90;;
20391;SDS011;10355;53.688;10.078;2022-07-12T01:06:43;1.50;;;0.90;;
20391;SDS011;10355;53.688;10.078;2022-07-12T01:09:25;1.35;;;0.80;;
20391;SDS011;10355;53.688;10.078;2022-07-12T01:12:09;1.10;;;0.90;;
20391;SDS011;10355;53.688;10.078;2022-07-12T01:14:52;0.93;;;0.80;;
20391;SDS011;10355;53.688;10.078;2022-07-12T01:17:35;1.30;;;0.90;;
20391;SDS011;10355;53.688;10.078;2022-07-12T01:20:18;0.93;;;0.73;;
20391;SDS011;10355;53.688;10.078;2022-07-12T01:23:02;1.88;;;0.88;;
20391;SDS011;10355;53.688;10.078;2022-07-12T01:25:45;1.50;;;0.75;;
20391;SDS011;10355;53.688;10.078;2022-07-12T01:28:28;1.10;;;0.95;;
20391;SDS011;10355;53.688;10.078;2022-07-12T01:31:11;1.10;;;0.85;;
20391;SDS011;10355;53.688;10.078;2022-07-12T01:33:54;1.13;;;0.85;;
20391;SDS011;10355;53.688;10.078;2022-07-12T01:36:37;2.08;;;0.70;;
20391;SDS011;10355;53.688;10.078;2022-07-12T01:39:23;1.50;;;0.80;;
20391;SDS011;10355;53.688;10.078;2022-07-12T01:42:06;1.48;;;1.00;;
20391;SDS011;10355;53.688;10.078;2022-07-12T01:44:49;0.90;;;0.80;;
20391;SDS011;10355;53.688;10.078;2022-07-12T01:47:32;2.15;;;0.80;;
20391;SDS011;10355;53.688;10.078;2022-07-12T01:50:15;1.20;;;0.90;;
20391;SDS011;10355;53.688;10.078;2022-07-12T01:52:59;1.48;;;0.88;;
20391;SDS011;10355;53.688;10.078;2022-07-12T01:55:43;1.20;;;0.80;;
20391;SDS011;10355;53.688;10.078;2022-07-12T01:58:26;1.10;;;0.80;;
20391;SDS011;10355;53.688;10.078;2022-07-12T02:01:12;1.05;;;0.80;;
20391;SDS011;10355;53.688;10.078;2022-07-12T02:03:56;2.63;;;0.80;;
20391;SDS011;10355;53.688;10.078;2022-07-12T02:06:39;1.50;;;0.73;;
20391;SDS011;10355;53.688;10.078;2022-07-12T02:09:22;2.05;;;1.10;;
20391;SDS011;10355;53.688;10.078;2022-07-12T02:12:07;1.30;;;0.70;;
20391;SDS011;10355;53.688;10.078;2022-07-12T02:14:50;1.05;;;0.88;;
20391;SDS011;10355;53.688;10.078;2022-07-12T02:17:33;1.00;;;0.80;;
20391;SDS011;10355;53.688;10.078;2022-07-12T02:20:16;1.00;;;0.90;;
20391;SDS011;10355;53.688;10.078;2022-07-12T02:22:59;2.83;;;1.20;;
20391;SDS011;10355;53.688;10.078;2022-07-12T02:25:42;1.45;;;0.90;;
20391;SDS011;10355;53.688;10.078;2022-07-12T02:28:26;1.67;;;0.93;;
20391;SDS011;10355;53.688;10.078;2022-07-12T02:31:10;0.93;;;0.80;;
20391;SDS011;10355;53.688;10.078;2022-07-12T02:33:53;0.95;;;0.80;;
20391;SDS011;10355;53.688;10.078;2022-07-12T02:36:36;1.83;;;0.80;;
20391;SDS011;10355;53.688;10.078;2022-07-12T02:39:19;1.65;;;0.95;;
20391;SDS011;10355;53.688;10.078;2022-07-12T02:42:02;1.08;;;0.85;;
20391;SDS011;10355;53.688;10.078;2022-07-12T02:44:46;1.05;;;0.80;;
20391;SDS011;10355;53.688;10.078;2022-07-12T02:47:32;1.48;;;0.88;;
20391;SDS011;10355;53.688;10.078;2022-07-12T02:50:15;1.23;;;0.90;;
20391;SDS011;10355;53.688;10.078;2022-07-12T02:52:58;0.93;;;0.88;;
20391;SDS011;10355;53.688;10.078;2022-07-12T02:55:41;1.35;;;0.95;;
20391;SDS011;10355;53.688;10.078;2022-07-12T02:58:24;1.10;;;0.70;;
20391;SDS011;10355;53.688;10.078;2022-07-12T03:01:08;1.40;;;0.90;;
20391;SDS011;10355;53.688;10.078;2022-07-12T03:03:52;1.45;;;1.00;;
20391;SDS011;10355;53.688;10.078;2022-07-12T03:06:35;1.23;;;0.90;;
20391;SDS011;10355;53.688;10.078;2022-07-12T03:09:18;1.35;;;0.80;;
20391;SDS011;10355;53.688;10.078;2022-07-12T03:12:00;0.90;;;0.70;;
20391;SDS011;10355;53.688;10.078;2022-07-12T03:14:43;1.50;;;0.85;;
20391;SDS011;10355;53.688;10.078;2022-07-12T03:17:27;0.80;;;0.80;;
20391;SDS011;10355;53.688;10.078;2022-07-12T03:20:11;1.27;;;0.98;;
20391;SDS011;10355;53.688;10.078;2022-07-12T03:22:56;1.05;;;0.77;;
20391;SDS011;10355;53.688;10.078;2022-07-12T03:25:39;1.42;;;0.90;;
20391;SDS011;10355;53.688;10.078;2022-07-12T03:28:22;1.80;;;1.00;;
20391;SDS011;10355;53.688;10.078;2022-07-12T03:31:08;0.88;;;0.60;;
20391;SDS011;10355;53.688;10.078;2022-07-12T03:33:52;0.85;;;0.73;;
20391;SDS011;10355;53.688;10.078;2022-07-12T03:36:35;0.90;;;0.70;;
20391;SDS011;10355;53.688;10.078;2022-07-12T03:39:18;1.23;;;0.80;;
20391;SDS011;10355;53.688;10.078;2022-07-12T03:42:01;1.10;;;0.80;;
20391;SDS011;10355;53.688;10.078;2022-07-12T03:44:44;1.95;;;1.13;;
20391;SDS011;10355;53.688;10.078;2022-07-12T03:47:26;1.23;;;0.80;;
20391;SDS011;10355;53.688;10.078;2022-07-12T03:50:11;2.67;;;0.88;;
20391;SDS011;10355;53.688;10.078;2022-07-12T03:52:54;1.33;;;1.00;;
20391;SDS011;10355;53.688;10.078;2022-07-12T03:55:37;1.52;;;0.80;;
20391;SDS011;10355;53.688;10.078;2022-07-12T03:58:20;1.60;;;1.30;;
20391;SDS011;10355;53.688;10.078;2022-07-12T04:01:03;2.97;;;1.30;;
20391;SDS011;10355;53.688;10.078;2022-07-12T04:03:48;2.17;;;1.20;;
20391;SDS011;10355;53.688;10.078;2022-07-12T04:06:33;3.35;;;1.10;;
20391;SDS011;10355;53.688;10.078;2022-07-12T04:09:15;2.00;;;1.50;;
20391;SDS011;10355;53.688;10.078;2022-07-12T04:11:59;3.25;;;1.55;;
20391;SDS011;10355;53.688;10.078;2022-07-12T04:14:41;1.83;;;1.40;;
20391;SDS011;10355;53.688;10.078;2022-07-12T04:17:24;2.70;;;1.63;;
20391;SDS011;10355;53.688;10.078;2022-07-12T04:20:08;2.00;;;1.40;;
20391;SDS011;10355;53.688;10.078;2022-07-12T04:22:52;3.28;;;1.83;;
20391;SDS011;10355;53.688;10.078;2022-07-12T04:25:36;2.85;;;1.98;;
20391;SDS011;10355;53.688;10.078;2022-07-12T04:28:19;3.17;;;1.70;;
20391;SDS011;10355;53.688;10.078;2022-07-12T04:31:01;2.83;;;1.65;;
20391;SDS011;10355;53.688;10.078;2022-07-12T04:33:47;2.80;;;1.80;;
20391;SDS011;10355;53.688;10.078;2022-07-12T04:36:30;3.05;;;1.92;;
20391;SDS011;10355;53.688;10.078;2022-07-12T04:39:16;4.07;;;1.80;;
20391;SDS011;10355;53.688;10.078;2022-07-12T04:41:58;3.25;;;1.80;;
20391;SDS011;10355;53.688;10.078;2022-07-12T04:44:41;3.95;;;1.77;;
20391;SDS011;10355;53.688;10.078;2022-07-12T04:47:24;5.00;;;1.80;;
20391;SDS011;10355;53.688;10.078;2022-07-12T04:50:07;2.55;;;1.50;;
20391;SDS011;10355;53.688;10.078;2022-07-12T04:52:50;1.88;;;1.30;;
20391;SDS011;10355;53.688;10.078;2022-07-12T04:55:35;5.38;;;1.60;;
20391;SDS011;10355;53.688;10.078;2022-07-12T04:58:18;2.60;;;1.52;;
20391;SDS011;10355;53.688;10.078;2022-07-12T05:01:01;3.58;;;1.90;;
20391;SDS011;10355;53.688;10.078;2022-07-12T05:03:46;5.20;;;2.08;;
20391;SDS011;10355;53.688;10.078;2022-07-12T05:06:30;4.43;;;2.13;;
20391;SDS011;10355;53.688;10.078;2022-07-12T05:09:12;4.30;;;2.13;;
20391;SDS011;10355;53.688;10.078;2022-07-12T05:11:57;3.97;;;2.22;;
20391;SDS011;10355;53.688;10.078;2022-07-12T05:14:40;2.85;;;2.15;;
20391;SDS011;10355;53.688;10.078;2022-07-12T05:17:23;3.85;;;2.35;;
20391;SDS011;10355;53.688;10.078;2022-07-12T05:20:06;4.10;;;2.17;;
20391;SDS011;10355;53.688;10.078;2022-07-12T05:22:49;4.38;;;2.80;;
20391;SDS011;10355;53.688;10.078;2022-07-12T05:25:32;6.35;;;3.25;;
20391;SDS011;10355;53.688;10.078;2022-07-12T05:28:17;4.43;;;2.53;;
20391;SDS011;10355;53.688;10.078;2022-07-12T05:31:00;3.28;;;2.13;;
20391;SDS011;10355;53.688;10.078;2022-07-12T05:33:43;4.47;;;2.75;;
20391;SDS011;10355;53.688;10.078;2022-07-12T05:36:26;4.63;;;2.55;;
20391;SDS011;10355;53.688;10.078;2022-07-12T05:39:09;4.03;;;2.72;;
20391;SDS011;10355;53.688;10.078;2022-07-12T05:41:52;5.53;;;3.10;;
20391;SDS011;10355;53.688;10.078;2022-07-12T05:44:37;5.70;;;3.30;;
20391;SDS011;10355;53.688;10.078;2022-07-12T05:47:19;5.82;;;3.40;;
20391;SDS011;10355;53.688;10.078;2022-07-12T05:50:03;5.15;;;3.42;;
20391;SDS011;10355;53.688;10.078;2022-07-12T05:52:46;5.85;;;3.60;;
20391;SDS011;10355;53.688;10.078;2022-07-12T05:55:46;5.43;;;3.58;;
20391;SDS011;10355;53.688;10.078;2022-07-12T05:58:29;4.40;;;3.13;;
20391;SDS011;10355;53.688;10.078;2022-07-12T06:01:19;4.57;;;2.92;;
20391;SDS011;10355;53.688;10.078;2022-07-12T06:04:04;4.57;;;3.10;;
20391;SDS011;10355;53.688;10.078;2022-07-12T06:06:47;6.45;;;3.42;;
20391;SDS011;10355;53.688;10.078;2022-07-12T06:09:30;4.32;;;3.03;;
20391;SDS011;10355;53.688;10.078;2022-07-12T06:12:13;7.05;;;3.08;;
20391;SDS011;10355;53.688;10.078;2022-07-12T06:14:56;4.90;;;2.80;;
20391;SDS011;10355;53.688;10.078;2022-07-12T06:17:40;4.45;;;2.85;;
20391;SDS011;10355;53.688;10.078;2022-07-12T06:20:24;2.90;;;2.10;;
20391;SDS011;10355;53.688;10.078;2022-07-12T06:23:07;3.63;;;2.20;;
20391;SDS011;10355;53.688;10.078;2022-07-12T06:25:50;3.67;;;2.53;;
20391;SDS011;10355;53.688;10.078;2022-07-12T06:28:36;4.90;;;2.42;;
20391;SDS011;10355;53.688;10.078;2022-07-12T06:31:19;3.63;;;1.95;;
20391;SDS011;10355;53.688;10.078;2022-07-12T06:34:06;3.42;;;2.05;;
20391;SDS011;10355;53.688;10.078;2022-07-12T06:36:49;2.65;;;1.80;;
20391;SDS011;10355;53.688;10.078;2022-07-12T06:39:33;2.70;;;1.58;;
20391;SDS011;10355;53.688;10.078;2022-07-12T06:42:16;3.10;;;1.85;;
20391;SDS011;10355;53.688;10.078;2022-07-12T06:45:07;3.22;;;1.77;;
20391;SDS011;10355;53.688;10.078;2022-07-12T06:47:50;2.83;;;1.20;;
20391;SDS011;10355;53.688;10.078;2022-07-12T06:50:35;4.47;;;1.83;;
20391;SDS011;10355;53.688;10.078;2022-07-12T06:53:17;2.10;;;1.55;;
20391;SDS011;10355;53.688;10.078;2022-07-12T06:56:03;2.08;;;1.50;;
20391;SDS011;10355;53.688;10.078;2022-07-12T06:58:49;2.65;;;1.42;;
20391;SDS011;10355;53.688;10.078;2022-07-12T07:01:33;1.50;;;0.90;;
20391;SDS011;10355;53.688;10.078;2022-07-12T07:04:16;3.53;;;1.30;;
20391;SDS011;10355;53.688;10.078;2022-07-12T07:07:00;1.27;;;1.17;;
20391;SDS011;10355;53.688;10.078;2022-07-12T07:09:43;1.73;;;1.08;;
20391;SDS011;10355;53.688;10.078;2022-07-12T07:12:26;2.47;;;1.15;;
20391;SDS011;10355;53.688;10.078;2022-07-12T07:15:09;2.22;;;1.30;;
20391;SDS011;10355;53.688;10.078;2022-07-12T07:17:55;2.67;;;1.30;;
20391;SDS011;10355;53.688;10.078;2022-07-12T07:20:38;2.85;;;1.30;;
20391;SDS011;10355;53.688;10.078;2022-07-12T07:23:24;1.23;;;1.10;;
20391;SDS011;10355;53.688;10.078;2022-07-12T07:26:06;3.30;;;1.10;;
20391;SDS011;10355;53.688;10.078;2022-07-12T07:28:49;1.20;;;0.98;;
20391;SDS011;10355;53.688;10.078;2022-07-12T07:31:58;2.50;;;1.30;;
20391;SDS011;10355;53.688;10.078;2022-07-12T07:34:41;3.67;;;1.30;;
20391;SDS011;10355;53.688;10.078;2022-07-12T07:37:24;2.28;;;1.30;;
20391;SDS011;10355;53.688;10.078;2022-07-12T07:40:09;2.22;;;1.40;;
20391;SDS011;10355;53.688;10.078;2022-07-12T07:42:52;2.15;;;1.30;;
20391;SDS011;10355;53.688;10.078;2022-07-12T07:45:36;3.55;;;1.30;;
20391;SDS011;10355;53.688;10.078;2022-07-12T07:48:19;2.30;;;1.13;;
20391;SDS011;10355;53.688;10.078;2022-07-12T07:51:08;3.10;;;1.38;;
20391;SDS011;10355;53.688;10.078;2022-07-12T07:53:51;2.58;;;1.40;;
20391;SDS011;10355;53.688;10.078;2022-07-12T07:56:36;2.95;;;1.30;;
20391;SDS011;10355;53.688;10.078;2022-07-12T07:59:20;1.98;;;1.52;;
20391;SDS011;10355;53.688;10.078;2022-07-12T08:02:03;3.58;;;1.60;;
20391;SDS011;10355;53.688;10.078;2022-07-12T08:04:46;2.60;;;0.90;;
20391;SDS011;10355;53.688;10.078;2022-07-12T08:07:29;1.88;;;1.02;;
20391;SDS011;10355;53.688;10.078;2022-07-12T08:10:32;1.65;;;1.10;;
20391;SDS011;10355;53.688;10.078;2022-07-12T08:16:21;2.65;;;1.05;;
20391;SDS011;10355;53.688;10.078;2022-07-12T08:19:04;1.33;;;0.90;;
20391;SDS011;10355;53.688;10.078;2022-07-12T08:21:47;3.25;;;1.20;;
20391;SDS011;10355;53.688;10.078;2022-07-12T08:24:30;1.67;;;1.00;;
20391;SDS011;10355;53.688;10.078;2022-07-12T08:27:13;1.17;;;0.95;;
20391;SDS011;10355;53.688;10.078;2022-07-12T08:29:56;3.22;;;1.15;;
20391;SDS011;10355;53.688;10.078;2022-07-12T08:32:44;2.03;;;1.00;;
20391;SDS011;10355;53.688;10.078;2022-07-12T08:35:27;1.83;;;1.20;;
20391;SDS011;10355;53.688;10.078;2022-07-12T08:38:10;1.20;;;0.80;;
20391;SDS011;10355;53.688;10.078;2022-07-12T08:40:53;3.40;;;1.40;;
20391;SDS011;10355;53.688;10.078;2022-07-12T08:43:36;1.77;;;1.05;;
20391;SDS011;10355;53.688;10.078;2022-07-12T08:46:19;1.08;;;0.80;;
20391;SDS011;10355;53.688;10.078;2022-07-12T08:49:06;1.77;;;1.10;;
20391;SDS011;10355;53.688;10.078;2022-07-12T08:51:49;2.70;;;0.88;;
20391;SDS011;10355;53.688;10.078;2022-07-12T08:54:38;2.50;;;1.00;;
20391;SDS011;10355;53.688;10.078;2022-07-12T08:57:30;0.90;;;0.70;;
20391;SDS011;10355;53.688;10.078;2022-07-12T09:00:13;0.90;;;0.70;;
20391;SDS011;10355;53.688;10.078;2022-07-12T09:02:57;0.75;;;0.70;;
20391;SDS011;10355;53.688;10.078;2022-07-12T09:05:46;2.35;;;0.88;;
20391;SDS011;10355;53.688;10.078;2022-07-12T09:08:30;0.60;;;0.50;;
20391;SDS011;10355;53.688;10.078;2022-07-12T09:11:14;0.30;;;0.30;;
20391;SDS011;10355;53.688;10.078;2022-07-12T09:13:58;0.50;;;0.40;;
20391;SDS011;10355;53.688;10.078;2022-07-12T09:16:42;1.40;;;0.55;;
20391;SDS011;10355;53.688;10.078;2022-07-12T09:19:25;0.77;;;0.30;;
20391;SDS011;10355;53.688;10.078;2022-07-12T09:22:14;0.30;;;0.30;;
20391;SDS011;10355;53.688;10.078;2022-07-12T09:24:59;0.43;;;0.40;;
20391;SDS011;10355;53.688;10.078;2022-07-12T09:27:51;0.30;;;0.30;;
20391;SDS011;10355;53.688;10.078;2022-07-12T09:30:35;0.45;;;0.22;;
20391;SDS011;10355;53.688;10.078;2022-07-12T09:33:20;0.20;;;0.20;;
20391;SDS011;10355;53.688;10.078;2022-07-12T09:36:23;0.20;;;0.20;;
20391;SDS011;10355;53.688;10.078;2022-07-12T09:39:08;0.17;;;0.17;;
20391;SDS011;10355;53.688;10.078;2022-07-12T09:41:52;0.20;;;0.20;;
20391;SDS011;10355;53.688;10.078;2022-07-12T09:44:35;0.57;;;0.28;;
20391;SDS011;10355;53.688;10.078;2022-07-12T09:47:17;0.20;;;0.20;;
20391;SDS011;10355;53.688;10.078;2022-07-12T09:50:01;0.40;;;0.30;;
20391;SDS011;10355;53.688;10.078;2022-07-12T09:52:44;0.28;;;0.20;;
20391;SDS011;10355;53.688;10.078;2022-07-12T09:55:29;0.30;;;0.28;;
20391;SDS011;10355;53.688;10.078;2022-07-12T09:58:12;0.60;;;0.35;;
20391;SDS011;10355;53.688;10.078;2022-07-12T10:03:59;0.20;;;0.20;;
20391;SDS011;10355;53.688;10.078;2022-07-12T10:07:18;0.30;;;0.30;;
20391;SDS011;10355;53.688;10.078;2022-07-12T10:10:01;0.17;;;0.17;;
20391;SDS011;10355;53.688;10.078;2022-07-12T10:13:04;1.30;;;0.30;;
20391;SDS011;10355;53.688;10.078;2022-07-12T10:15:50;0.65;;;0.20;;
20391;SDS011;10355;53.688;10.078;2022-07-12T10:18:33;0.20;;;0.20;;
20391;SDS011;10355;53.688;10.078;2022-07-12T10:21:17;0.10;;;0.10;;
20391;SDS011;10355;53.688;10.078;2022-07-12T10:27:26;0.20;;;0.20;;
20391;SDS011;10355;53.688;10.078;2022-07-12T10:30:21;0.20;;;0.20;;
20391;SDS011;10355;53.688;10.078;2022-07-12T10:33:05;0.10;;;0.10;;
20391;SDS011;10355;53.688;10.078;2022-07-12T10:36:00;0.10;;;0.10;;
20391;SDS011;10355;53.688;10.078;2022-07-12T10:38:43;0.10;;;0.10;;
20391;SDS011;10355;53.688;10.078;2022-07-12T10:41:48;0.20;;;0.17;;
20391;SDS011;10355;53.688;10.078;2022-07-12T10:44:57;0.13;;;0.13;;
20391;SDS011;10355;53.688;10.078;2022-07-12T10:47:56;0.20;;;0.20;;
20391;SDS011;10355;53.688;10.078;2022-07-12T10:50:53;0.10;;;0.10;;
20391;SDS011;10355;53.688;10.078;2022-07-12T10:53:57;0.20;;;0.20;;
20391;SDS011;10355;53.688;10.078;2022-07-12T10:57:00;1.00;;;0.20;;
20391;SDS011;10355;53.688;10.078;2022-07-12T10:59:43;0.15;;;0.15;;
20391;SDS011;10355;53.688;10.078;2022-07-12T11:02:46;0.10;;;0.10;;
20391;SDS011;10355;53.688;10.078;2022-07-12T11:05:31;0.10;;;0.10;;
20391;SDS011;10355;53.688;10.078;2022-07-12T11:08:14;0.10;;;0.10;;
20391;SDS011;10355;53.688;10.078;2022-07-12T11:10:58;0.20;;;0.20;;
20391;SDS011;10355;53.688;10.078;2022-07-12T11:13:41;0.10;;;0.10;;
20391;SDS011;10355;53.688;10.078;2022-07-12T11:16:24;0.22;;;0.22;;
20391;SDS011;10355;53.688;10.078;2022-07-12T11:19:07;0.22;;;0.20;;
20391;SDS011;10355;53.688;10.078;2022-07-12T11:21:53;0.20;;;0.20;;
20391;SDS011;10355;53.688;10.078;2022-07-12T11:24:38;0.13;;;0.13;;
20391;SDS011;10355;53.688;10.078;2022-07-12T11:27:21;0.40;;;0.30;;
20391;SDS011;10355;53.688;10.078;2022-07-12T11:30:05;0.38;;;0.30;;
20391;SDS011;10355;53.688;10.078;2022-07-12T11:32:48;0.20;;;0.20;;
20391;SDS011;10355;53.688;10.078;2022-07-12T11:35:36;0.47;;;0.40;;
20391;SDS011;10355;53.688;10.078;2022-07-12T11:38:24;0.30;;;0.30;;
20391;SDS011;10355;53.688;10.078;2022-07-12T11:41:15;0.30;;;0.20;;
20391;SDS011;10355;53.688;10.078;2022-07-12T11:43:58;0.15;;;0.15;;
20391;SDS011;10355;53.688;10.078;2022-07-12T11:46:41;0.10;;;0.10;;
20391;SDS011;10355;53.688;10.078;2022-07-12T11:49:31;0.10;;;0.10;;
20391;SDS011;10355;53.688;10.078;2022-07-12T11:52:14;0.20;;;0.20;;
20391;SDS011;10355;53.688;10.078;2022-07-12T11:55:00;0.10;;;0.10;;
20391;SDS011;10355;53.688;10.078;2022-07-12T11:57:49;0.20;;;0.20;;
20391;SDS011;10355;53.688;10.078;2022-07-12T12:00:32;0.10;;;0.10;;
20391;SDS011;10355;53.688;10.078;2022-07-12T12:03:15;0.10;;;0.10;;
20391;SDS011;10355;53.688;10.078;2022-07-12T12:05:59;0.10;;;0.10;;
20391;SDS011;10355;53.688;10.078;2022-07-12T12:08:42;0.10;;;0.10;;
20391;SDS011;10355;53.688;10.078;2022-07-12T12:11:28;0.10;;;0.10;;
20391;SDS011;10355;53.688;10.078;2022-07-12T12:14:11;0.15;;;0.15;;
20391;SDS011;10355;53.688;10.078;2022-07-12T12:16:54;0.10;;;0.10;;
20391;SDS011;10355;53.688;10.078;2022-07-12T12:19:40;0.20;;;0.10;;
20391;SDS011;10355;53.688;10.078;2022-07-12T12:22:27;0.10;;;0.10;;
20391;SDS011;10355;53.688;10.078;2022-07-12T12:25:10;0.10;;;0.10;;
20391;SDS011;10355;53.688;10.078;2022-07-12T12:27:57;0.10;;;0.10;;
20391;SDS011;10355;53.688;10.078;2022-07-12T12:30:59;0.10;;;0.10;;
20391;SDS011;10355;53.688;10.078;2022-07-12T12:36:43;0.20;;;0.20;;
20391;SDS011;10355;53.688;10.078;2022-07-12T12:39:47;0.10;;;0.10;;
20391;SDS011;10355;53.688;10.078;2022-07-12T12:42:31;0.55;;;0.20;;
20391;SDS011;10355;53.688;10.078;2022-07-12T12:45:19;0.20;;;0.20;;
20391;SDS011;10355;53.688;10.078;2022-07-12T12:48:03;0.13;;;0.13;;
20391;SDS011;10355;53.688;10.078;2022-07-12T12:50:47;0.10;;;0.10;;
20391;SDS011;10355;53.688;10.078;2022-07-12T12:53:30;0.10;;;0.10;;
20391;SDS011;10355;53.688;10.078;2022-07-12T12:56:13;0.10;;;0.10;;
20391;SDS011;10355;53.688;10.078;2022-07-12T12:58:57;0.20;;;0.20;;
20391;SDS011;10355;53.688;10.078;2022-07-12T13:01:41;0.20;;;0.20;;
20391;SDS011;10355;53.688;10.078;2022-07-12T13:04:27;0.10;;;0.10;;
20391;SDS011;10355;53.688;10.078;2022-07-12T13:07:10;0.10;;;0.10;;
20391;SDS011;10355;53.688;10.078;2022-07-12T13:09:54;0.10;;;0.10;;
20391;SDS011;10355;53.688;10.078;2022-07-12T13:12:37;0.13;;;0.10;;
20391;SDS011;10355;53.688;10.078;2022-07-12T13:15:38;0.68;;;0.10;;
20391;SDS011;10355;53.688;10.078;2022-07-12T13:18:22;0.10;;;0.10;;
20391;SDS011;10355;53.688;10.078;2022-07-12T13:21:08;0.20;;;0.20;;
20391;SDS011;10355;53.688;10.078;2022-07-12T13:23:51;0.10;;;0.10;;
20391;SDS011;10355;53.688;10.078;2022-07-12T13:26:34;0.20;;;0.10;;
20391;SDS011;10355;53.688;10.078;2022-07-12T13:32:19;0.17;;;0.15;;
20391;SDS011;10355;53.688;10.078;2022-07-12T13:35:04;0.10;;;0.10;;
20391;SDS011;10355;53.688;10.078;2022-07-12T13:37:48;0.10;;;0.10;;
20391;SDS011;10355;53.688;10.078;2022-07-12T13:40:48;0.10;;;0.10;;
20391;SDS011;10355;53.688;10.078;2022-07-12T13:43:49;0.15;;;0.15;;
20391;SDS011;10355;53.688;10.078;2022-07-12T13:46:32;0.10;;;0.10;;
20391;SDS011;10355;53.688;10.078;2022-07-12T13:49:15;0.10;;;0.10;;
20391;SDS011;10355;53.688;10.078;2022-07-12T13:51:59;0.10;;;0.10;;
20391;SDS011;10355;53.688;10.078;2022-07-12T13:54:43;0.20;;;0.20;;
20391;SDS011;10355;53.688;10.078;2022-07-12T13:57:26;0.10;;;0.10;;
20391;SDS011;10355;53.688;10.078;2022-07-12T14:00:10;0.10;;;0.10;;
20391;SDS011;10355;53.688;10.078;2022-07-12T14:02:54;0.10;;;0.10;;
20391;SDS011;10355;53.688;10.078;2022-07-12T14:05:37;0.25;;;0.20;;
20391;SDS011;10355;53.688;10.078;2022-07-12T14:08:22;0.30;;;0.20;;
20391;SDS011;10355;53.688;10.078;2022-07-12T14:11:07;0.10;;;0.10;;
20391;SDS011;10355;53.688;10.078;2022-07-12T14:13:50;0.10;;;0.10;;
20391;SDS011;10355;53.688;10.078;2022-07-12T14:16:33;0.20;;;0.13;;
20391;SDS011;10355;53.688;10.078;2022-07-12T14:19:16;0.57;;;0.20;;
20391;SDS011;10355;53.688;10.078;2022-07-12T14:22:16;0.20;;;0.20;;
20391;SDS011;10355;53.688;10.078;2022-07-12T14:25:00;0.20;;;0.17;;
20391;SDS011;10355;53.688;10.078;2022-07-12T14:27:44;0.20;;;0.20;;
20391;SDS011;10355;53.688;10.078;2022-07-12T14:33:28;0.10;;;0.10;;
20391;SDS011;10355;53.688;10.078;2022-07-12T14:39:12;0.20;;;0.20;;
20391;SDS011;10355;53.688;10.078;2022-07-12T14:42:15;0.20;;;0.20;;
20391;SDS011;10355;53.688;10.078;2022-07-12T14:44:58;0.20;;;0.20;;
20391;SDS011;10355;53.688;10.078;2022-07-12T14:47:41;0.20;;;0.20;;
20391;SDS011;10355;53.688;10.078;2022-07-12T14:50:41;0.20;;;0.20;;
20391;SDS011;10355;53.688;10.078;2022-07-12T14:53:41;0.10;;;0.10;;
20391;SDS011;10355;53.688;10.078;2022-07-12T14:56:43;0.10;;;0.10;;
20391;SDS011;10355;53.688;10.078;2022-07-12T14:59:33;0.13;;;0.13;;
20391;SDS011;10355;53.688;10.078;2022-07-12T15:02:33;0.20;;;0.10;;
20391;SDS011;10355;53.688;10.078;2022-07-12T15:05:17;0.20;;;0.20;;
20391;SDS011;10355;53.688;10.078;2022-07-12T15:08:00;0.15;;;0.15;;
20391;SDS011;10355;53.688;10.078;2022-07-12T15:10:43;0.10;;;0.10;;
20391;SDS011;10355;53.688;10.078;2022-07-12T15:13:26;0.10;;;0.10;;
20391;SDS011;10355;53.688;10.078;2022-07-12T15:16:12;0.10;;;0.10;;
20391;SDS011;10355;53.688;10.078;2022-07-12T15:18:55;0.10;;;0.10;;
20391;SDS011;10355;53.688;10.078;2022-07-12T15:21:58;0.20;;;0.20;;
20391;SDS011;10355;53.688;10.078;2022-07-12T15:24:41;0.10;;;0.10;;
20391;SDS011;10355;53.688;10.078;2022-07-12T15:27:24;0.10;;;0.10;;
20391;SDS011;10355;53.688;10.078;2022-07-12T15:30:09;0.20;;;0.20;;
20391;SDS011;10355;53.688;10.078;2022-07-12T15:32:53;0.10;;;0.10;;
20391;SDS011;10355;53.688;10.078;2022-07-12T15:35:37;0.10;;;0.10;;
20391;SDS011;10355;53.688;10.078;2022-07-12T15:38:21;0.10;;;0.10;;
20391;SDS011;10355;53.688;10.078;2022-07-12T15:41:07;0.10;;;0.10;;
20391;SDS011;10355;53.688;10.078;2022-07-12T15:43:50;0.15;;;0.15;;
20391;SDS011;10355;53.688;10.078;2022-07-12T15:46:33;0.10;;;0.10;;
20391;SDS011;10355;53.688;10.078;2022-07-12T15:49:17;0.15;;;0.15;;
20391;SDS011;10355;53.688;10.078;2022-07-12T15:52:00;0.10;;;0.10;;
20391;SDS011;10355;53.688;10.078;2022-07-12T15:55:00;0.10;;;0.10;;
20391;SDS011;10355;53.688;10.078;2022-07-12T15:57:43;0.10;;;0.10;;
20391;SDS011;10355;53.688;10.078;2022-07-12T16:00:26;0.20;;;0.20;;
20391;SDS011;10355;53.688;10.078;2022-07-12T16:03:09;0.17;;;0.17;;
20391;SDS011;10355;53.688;10.078;2022-07-12T16:06:12;0.10;;;0.10;;
20391;SDS011;10355;53.688;10.078;2022-07-12T16:08:54;0.10;;;0.10;;
20391;SDS011;10355;53.688;10.078;2022-07-12T16:11:37;0.10;;;0.10;;
20391;SDS011;10355;53.688;10.078;2022-07-12T16:14:20;0.10;;;0.10;;
20391;SDS011;10355;53.688;10.078;2022-07-12T16:17:05;0.10;;;0.10;;
20391;SDS011;10355;53.688;10.078;2022-07-12T16:19:48;0.10;;;0.10;;
20391;SDS011;10355;53.688;10.078;2022-07-12T16:22:32;0.20;;;0.10;;
20391;SDS011;10355;53.688;10.078;2022-07-12T16:25:15;0.20;;;0.20;;
20391;SDS011;10355;53.688;10.078;2022-07-12T16:27:58;0.30;;;0.30;;
20391;SDS011;10355;53.688;10.078;2022-07-12T16:31:16;0.30;;;0.30;;
20391;SDS011;10355;53.688;10.078;2022-07-12T16:37:21;0.22;;;0.22;;
20391;SDS011;10355;53.688;10.078;2022-07-12T16:40:06;0.90;;;0.40;;
20391;SDS011;10355;53.688;10.078;2022-07-12T16:42:49;0.40;;;0.40;;
20391;SDS011;10355;53.688;10.078;2022-07-12T16:45:32;0.70;;;0.22;;